sensor_id;sensor_type;location;lat;lon;timestamp;temperature;humidity
30069;DHT22;16894;49.456;10.644;2022-12-07T00:01:27;2.80;99.90
30069;DHT22;16894;49.456;10.644;2022-12-07T00:03:55;2.80;99.90
30069;DHT22;16894;49.456;10.644;2022-12-07T00:06:51;2.80;99.90
30069;DHT22;16894;49.456;10.644;2022-12-07T00:09:17;2.80;99.90
30069;DHT22;16894;49.456;10.644;2022-12-07T00:11:43;2.70;99.90
30069;DHT22;16894;49.456;10.644;2022-12-07T00:14:12;2.70;99.90
30069;DHT22;16894;49.456;10.644;2022-12-07T00:16:38;2.70;99.90
30069;DHT22;16894;49.456;10.644;2022-12-07T00:19:04;2.70;99.90
30069;DHT22;16894;49.456;10.644;2022-12-07T00:21:34;2.70;99.90
30069;DHT22;16894;49.456;10.644;2022-12-07T00:24:01;2.70;99.90
30069;DHT22;16894;49.456;10.644;2022-12-07T00:26:44;2.70;99.90
30069;DHT22;16894;49.456;10.644;2022-12-07T00:29:19;2.70;99.90
30069;DHT22;16894;49.456;10.644;2022-12-07T00:31:45;2.70;99.90
30069;DHT22;16894;49.456;10.644;2022-12-07T00:34:19;2.70;99.90
30069;DHT22;16894;49.456;10.644;2022-12-07T00:36:45;2.70;99.90
30069;DHT22;16894;49.456;10.644;2022-12-07T00:39:11;2.80;99.90
30069;DHT22;16894;49.456;10.644;2022-12-07T00:41:36;2.70;99.90
30069;DHT22;16894;49.456;10.644;2022-12-07T00:44:02;2.70;99.90
30069;DHT22;16894;49.456;10.644;2022-12-07T00:46:28;2.60;99.90
30069;DHT22;16894;49.456;10.644;2022-12-07T00:48:54;2.60;99.90
30069;DHT22;16894;49.456;10.644;2022-12-07T00:51:21;2.70;99.90
30069;DHT22;16894;49.456;10.644;2022-12-07T00:53:47;2.70;99.90
30069;DHT22;16894;49.456;10.644;2022-12-07T00:56:22;2.70;99.90
30069;DHT22;16894;49.456;10.644;2022-12-07T00:58:52;2.70;99.90
30069;DHT22;16894;49.456;10.644;2022-12-07T01:01:18;2.70;99.90
30069;DHT22;16894;49.456;10.644;2022-12-07T01:03:43;2.70;99.90
30069;DHT22;16894;49.456;10.644;2022-12-07T01:06:09;2.70;99.90
30069;DHT22;16894;49.456;10.644;2022-12-07T01:08:34;2.70;99.90
30069;DHT22;16894;49.456;10.644;2022-12-07T01:11:05;2.70;99.90
30069;DHT22;16894;49.456;10.644;2022-12-07T01:13:32;2.70;99.90
30069;DHT22;16894;49.456;10.644;2022-12-07T01:16:00;2.70;99.90
30069;DHT22;16894;49.456;10.644;2022-12-07T01:18:29;2.70;99.90
30069;DHT22;16894;49.456;10.644;2022-12-07T01:21:10;2.70;99.90
30069;DHT22;16894;49.456;10.644;2022-12-07T01:23:37;2.70;99.90
30069;DHT22;16894;49.456;10.644;2022-12-07T01:26:05;2.70;99.90
30069;DHT22;16894;49.456;10.644;2022-12-07T01:28:31;2.70;99.90
30069;DHT22;16894;49.456;10.644;2022-12-07T01:33:30;2.70;99.90
30069;DHT22;16894;49.456;10.644;2022-12-07T01:36:07;2.70;99.90
30069;DHT22;16894;49.456;10.644;2022-12-07T01:38:33;2.70;99.90
30069;DHT22;16894;49.456;10.644;2022-12-07T01:41:00;2.70;99.90
30069;DHT22;16894;49.456;10.644;2022-12-07T01:43:27;2.60;99.90
30069;DHT22;16894;49.456;10.644;2022-12-07T01:45:53;2.60;99.90
30069;DHT22;16894;49.456;10.644;2022-12-07T01:48:40;2.60;99.90
30069;DHT22;16894;49.456;10.644;2022-12-07T01:51:11;2.60;99.90
30069;DHT22;16894;49.456;10.644;2022-12-07T01:53:41;2.60;99.90
30069;DHT22;16894;49.456;10.644;2022-12-07T01:56:11;2.60;99.90
30069;DHT22;16894;49.456;10.644;2022-12-07T01:58:39;2.60;99.90
30069;DHT22;16894;49.456;10.644;2022-12-07T02:01:05;2.60;99.90
30069;DHT22;16894;49.456;10.644;2022-12-07T02:03:38;2.60;99.90
30069;DHT22;16894;49.456;10.644;2022-12-07T02:06:05;2.50;99.90
30069;DHT22;16894;49.456;10.644;2022-12-07T02:08:32;2.50;99.90
30069;DHT22;16894;49.456;10.644;2022-12-07T02:10:57;2.50;99.90
30069;DHT22;16894;49.456;10.644;2022-12-07T02:13:26;2.50;99.90
30069;DHT22;16894;49.456;10.644;2022-12-07T02:22:01;2.50;99.90
30069;DHT22;16894;49.456;10.644;2022-12-07T02:24:54;2.50;99.90
30069;DHT22;16894;49.456;10.644;2022-12-07T02:27:47;2.50;99.90
30069;DHT22;16894;49.456;10.644;2022-12-07T02:30:17;2.50;99.90
30069;DHT22;16894;49.456;10.644;2022-12-07T02:33:07;2.50;99.90
30069;DHT22;16894;49.456;10.644;2022-12-07T02:35:42;2.40;99.90
30069;DHT22;16894;49.456;10.644;2022-12-07T02:38:25;2.30;99.90
30069;DHT22;16894;49.456;10.644;2022-12-07T02:41:04;2.30;99.90
30069;DHT22;16894;49.456;10.644;2022-12-07T02:43:36;2.10;99.90
30069;DHT22;16894;49.456;10.644;2022-12-07T02:46:20;2.00;99.90
30069;DHT22;16894;49.456;10.644;2022-12-07T02:48:47;1.90;99.90
30069;DHT22;16894;49.456;10.644;2022-12-07T02:51:17;1.90;99.90
30069;DHT22;16894;49.456;10.644;2022-12-07T02:53:43;1.80;99.90
30069;DHT22;16894;49.456;10.644;2022-12-07T03:01:41;1.80;99.90
30069;DHT22;16894;49.456;10.644;2022-12-07T03:18:20;1.60;99.90
30069;DHT22;16894;49.456;10.644;2022-12-07T03:20:50;1.70;99.90
30069;DHT22;16894;49.456;10.644;2022-12-07T03:23:17;1.60;99.90
30069;DHT22;16894;49.456;10.644;2022-12-07T03:25:47;1.60;99.90
30069;DHT22;16894;49.456;10.644;2022-12-07T03:28:16;1.60;99.90
30069;DHT22;16894;49.456;10.644;2022-12-07T03:30:57;1.60;99.90
30069;DHT22;16894;49.456;10.644;2022-12-07T03:33:31;1.70;99.90
30069;DHT22;16894;49.456;10.644;2022-12-07T03:36:11;1.70;99.90
30069;DHT22;16894;49.456;10.644;2022-12-07T03:38:45;1.70;99.90
30069;DHT22;16894;49.456;10.644;2022-12-07T03:43:44;1.70;99.90
30069;DHT22;16894;49.456;10.644;2022-12-07T03:46:19;1.70;99.90
30069;DHT22;16894;49.456;10.644;2022-12-07T03:48:55;1.70;99.90
30069;DHT22;16894;49.456;10.644;2022-12-07T03:51:45;1.70;99.90
30069;DHT22;16894;49.456;10.644;2022-12-07T03:56:58;1.70;99.90
30069;DHT22;16894;49.456;10.644;2022-12-07T03:59:25;1.70;99.90
30069;DHT22;16894;49.456;10.644;2022-12-07T04:01:57;1.70;99.90
30069;DHT22;16894;49.456;10.644;2022-12-07T04:04:29;1.70;99.90
30069;DHT22;16894;49.456;10.644;2022-12-07T04:06:59;1.70;99.90
30069;DHT22;16894;49.456;10.644;2022-12-07T04:09:25;1.70;99.90
30069;DHT22;16894;49.456;10.644;2022-12-07T04:11:51;1.60;99.90
30069;DHT22;16894;49.456;10.644;2022-12-07T04:14:16;1.60;99.90
30069;DHT22;16894;49.456;10.644;2022-12-07T04:16:57;1.70;99.90
30069;DHT22;16894;49.456;10.644;2022-12-07T04:19:25;1.60;99.90
30069;DHT22;16894;49.456;10.644;2022-12-07T04:21:51;1.60;99.90
30069;DHT22;16894;49.456;10.644;2022-12-07T04:24:16;1.70;99.90
30069;DHT22;16894;49.456;10.644;2022-12-07T04:26:43;1.70;99.90
30069;DHT22;16894;49.456;10.644;2022-12-07T04:29:09;1.70;99.90
30069;DHT22;16894;49.456;10.644;2022-12-07T04:31:35;1.70;99.90
30069;DHT22;16894;49.456;10.644;2022-12-07T04:34:01;1.60;99.90
30069;DHT22;16894;49.456;10.644;2022-12-07T04:36:27;1.70;99.90
30069;DHT22;16894;49.456;10.644;2022-12-07T04:38:53;1.70;99.90
30069;DHT22;16894;49.456;10.644;2022-12-07T04:41:20;1.70;99.90
30069;DHT22;16894;49.456;10.644;2022-12-07T04:43:53;1.70;99.90
30069;DHT22;16894;49.456;10.644;2022-12-07T04:46:19;1.80;99.90
30069;DHT22;16894;49.456;10.644;2022-12-07T04:48:45;1.80;99.90
30069;DHT22;16894;49.456;10.644;2022-12-07T04:51:10;1.80;99.90
30069;DHT22;16894;49.456;10.644;2022-12-07T04:53:36;1.80;99.90
30069;DHT22;16894;49.456;10.644;2022-12-07T04:56:01;1.90;99.90
30069;DHT22;16894;49.456;10.644;2022-12-07T04:58:27;1.90;99.90
30069;DHT22;16894;49.456;10.644;2022-12-07T05:00:55;1.90;99.90
30069;DHT22;16894;49.456;10.644;2022-12-07T05:03:21;1.90;99.90
30069;DHT22;16894;49.456;10.644;2022-12-07T05:05:47;1.90;99.90
30069;DHT22;16894;49.456;10.644;2022-12-07T05:08:13;1.90;99.90
30069;DHT22;16894;49.456;10.644;2022-12-07T05:10:38;1.90;99.90
30069;DHT22;16894;49.456;10.644;2022-12-07T05:13:04;1.90;99.90
30069;DHT22;16894;49.456;10.644;2022-12-07T05:15:29;2.00;99.90
30069;DHT22;16894;49.456;10.644;2022-12-07T05:17:55;1.90;99.90
30069;DHT22;16894;49.456;10.644;2022-12-07T05:20:20;1.90;99.90
30069;DHT22;16894;49.456;10.644;2022-12-07T05:22:46;1.90;99.90
30069;DHT22;16894;49.456;10.644;2022-12-07T05:25:12;1.90;99.90
30069;DHT22;16894;49.456;10.644;2022-12-07T05:27:38;1.90;99.90
30069;DHT22;16894;49.456;10.644;2022-12-07T05:30:04;1.90;99.90
30069;DHT22;16894;49.456;10.644;2022-12-07T05:32:30;1.90;99.90
30069;DHT22;16894;49.456;10.644;2022-12-07T05:34:56;1.90;99.90
30069;DHT22;16894;49.456;10.644;2022-12-07T05:37:21;1.90;99.90
30069;DHT22;16894;49.456;10.644;2022-12-07T05:39:47;1.90;99.90
30069;DHT22;16894;49.456;10.644;2022-12-07T05:42:13;1.90;99.90
30069;DHT22;16894;49.456;10.644;2022-12-07T05:44:39;1.90;99.90
30069;DHT22;16894;49.456;10.644;2022-12-07T05:47:05;1.90;99.90
30069;DHT22;16894;49.456;10.644;2022-12-07T05:49:31;2.00;99.90
30069;DHT22;16894;49.456;10.644;2022-12-07T05:51:57;1.90;99.90
30069;DHT22;16894;49.456;10.644;2022-12-07T05:54:22;1.90;99.90
30069;DHT22;16894;49.456;10.644;2022-12-07T05:56:48;1.90;99.90
30069;DHT22;16894;49.456;10.644;2022-12-07T05:59:13;1.90;99.90
30069;DHT22;16894;49.456;10.644;2022-12-07T06:01:54;1.90;99.90
30069;DHT22;16894;49.456;10.644;2022-12-07T06:04:21;1.90;99.90
30069;DHT22;16894;49.456;10.644;2022-12-07T06:06:47;1.90;99.90
30069;DHT22;16894;49.456;10.644;2022-12-07T06:09:13;1.90;99.90
30069;DHT22;16894;49.456;10.644;2022-12-07T06:11:40;2.00;99.90
30069;DHT22;16894;49.456;10.644;2022-12-07T06:14:24;2.00;99.90
30069;DHT22;16894;49.456;10.644;2022-12-07T06:16:49;2.00;99.90
30069;DHT22;16894;49.456;10.644;2022-12-07T06:19:15;2.00;99.90
30069;DHT22;16894;49.456;10.644;2022-12-07T06:21:41;2.00;99.90
30069;DHT22;16894;49.456;10.644;2022-12-07T06:24:07;2.10;99.90
30069;DHT22;16894;49.456;10.644;2022-12-07T06:26:33;2.10;99.90
30069;DHT22;16894;49.456;10.644;2022-12-07T06:28:58;2.10;99.90
30069;DHT22;16894;49.456;10.644;2022-12-07T06:31:24;2.10;99.90
30069;DHT22;16894;49.456;10.644;2022-12-07T06:33:50;2.20;99.90
30069;DHT22;16894;49.456;10.644;2022-12-07T06:36:15;2.10;99.90
30069;DHT22;16894;49.456;10.644;2022-12-07T06:38:41;2.10;99.90
30069;DHT22;16894;49.456;10.644;2022-12-07T06:41:06;2.20;99.90
30069;DHT22;16894;49.456;10.644;2022-12-07T06:43:32;2.20;99.90
30069;DHT22;16894;49.456;10.644;2022-12-07T06:45:58;2.20;99.90
30069;DHT22;16894;49.456;10.644;2022-12-07T06:48:24;2.20;99.90
30069;DHT22;16894;49.456;10.644;2022-12-07T06:50:49;2.20;99.90
30069;DHT22;16894;49.456;10.644;2022-12-07T06:53:15;2.20;99.90
30069;DHT22;16894;49.456;10.644;2022-12-07T06:55:41;2.20;99.90
30069;DHT22;16894;49.456;10.644;2022-12-07T06:58:07;2.30;99.90
30069;DHT22;16894;49.456;10.644;2022-12-07T07:00:32;2.30;99.90
30069;DHT22;16894;49.456;10.644;2022-12-07T07:03:00;2.30;99.90
30069;DHT22;16894;49.456;10.644;2022-12-07T07:05:26;2.30;99.90
30069;DHT22;16894;49.456;10.644;2022-12-07T07:07:51;2.40;99.90
30069;DHT22;16894;49.456;10.644;2022-12-07T07:10:17;2.40;99.90
30069;DHT22;16894;49.456;10.644;2022-12-07T07:12:43;2.40;99.90
30069;DHT22;16894;49.456;10.644;2022-12-07T07:15:09;2.40;99.90
30069;DHT22;16894;49.456;10.644;2022-12-07T07:17:35;2.40;99.90
30069;DHT22;16894;49.456;10.644;2022-12-07T07:20:00;2.40;99.90
30069;DHT22;16894;49.456;10.644;2022-12-07T07:22:26;2.40;99.90
30069;DHT22;16894;49.456;10.644;2022-12-07T07:24:52;2.40;99.90
30069;DHT22;16894;49.456;10.644;2022-12-07T07:27:17;2.50;99.90
30069;DHT22;16894;49.456;10.644;2022-12-07T07:29:46;2.50;99.90
30069;DHT22;16894;49.456;10.644;2022-12-07T07:32:11;2.50;99.90
30069;DHT22;16894;49.456;10.644;2022-12-07T07:34:38;2.50;99.90
30069;DHT22;16894;49.456;10.644;2022-12-07T07:37:04;2.50;99.90
30069;DHT22;16894;49.456;10.644;2022-12-07T07:39:30;2.60;99.90
30069;DHT22;16894;49.456;10.644;2022-12-07T07:41:58;2.60;99.90
30069;DHT22;16894;49.456;10.644;2022-12-07T07:44:23;2.60;99.90
30069;DHT22;16894;49.456;10.644;2022-12-07T07:46:50;2.60;99.90
30069;DHT22;16894;49.456;10.644;2022-12-07T07:49:16;2.70;99.90
30069;DHT22;16894;49.456;10.644;2022-12-07T07:51:41;2.70;99.90
30069;DHT22;16894;49.456;10.644;2022-12-07T07:54:07;2.70;99.90
30069;DHT22;16894;49.456;10.644;2022-12-07T07:56:32;2.70;99.90
30069;DHT22;16894;49.456;10.644;2022-12-07T07:58:58;2.70;99.90
30069;DHT22;16894;49.456;10.644;2022-12-07T08:01:24;2.70;99.90
30069;DHT22;16894;49.456;10.644;2022-12-07T08:03:49;2.70;99.90
30069;DHT22;16894;49.456;10.644;2022-12-07T08:06:15;2.70;99.90
30069;DHT22;16894;49.456;10.644;2022-12-07T08:08:41;2.70;99.90
30069;DHT22;16894;49.456;10.644;2022-12-07T08:11:08;2.80;99.90
30069;DHT22;16894;49.456;10.644;2022-12-07T08:13:35;2.80;99.90
30069;DHT22;16894;49.456;10.644;2022-12-07T08:16:05;2.80;99.90
30069;DHT22;16894;49.456;10.644;2022-12-07T08:18:31;2.90;99.90
30069;DHT22;16894;49.456;10.644;2022-12-07T08:21:00;2.90;99.90
30069;DHT22;16894;49.456;10.644;2022-12-07T08:23:30;2.90;99.90
30069;DHT22;16894;49.456;10.644;2022-12-07T08:26:00;2.90;99.90
30069;DHT22;16894;49.456;10.644;2022-12-07T08:28:27;3.00;99.90
30069;DHT22;16894;49.456;10.644;2022-12-07T08:31:05;3.00;99.90
30069;DHT22;16894;49.456;10.644;2022-12-07T08:33:31;3.00;99.90
30069;DHT22;16894;49.456;10.644;2022-12-07T08:36:06;3.10;99.90
30069;DHT22;16894;49.456;10.644;2022-12-07T08:38:31;3.10;99.90
30069;DHT22;16894;49.456;10.644;2022-12-07T08:40:58;3.10;99.90
30069;DHT22;16894;49.456;10.644;2022-12-07T08:43:24;3.10;99.90
30069;DHT22;16894;49.456;10.644;2022-12-07T08:46:03;3.20;99.90
30069;DHT22;16894;49.456;10.644;2022-12-07T08:48:29;3.20;99.90
30069;DHT22;16894;49.456;10.644;2022-12-07T08:50:56;3.20;99.90
30069;DHT22;16894;49.456;10.644;2022-12-07T08:53:22;3.20;99.90
30069;DHT22;16894;49.456;10.644;2022-12-07T08:55:48;3.30;99.90
30069;DHT22;16894;49.456;10.644;2022-12-07T08:58:14;3.20;99.90
30069;DHT22;16894;49.456;10.644;2022-12-07T09:00:40;3.20;99.90
30069;DHT22;16894;49.456;10.644;2022-12-07T09:03:05;3.20;99.90
30069;DHT22;16894;49.456;10.644;2022-12-07T09:05:32;3.20;99.90
30069;DHT22;16894;49.456;10.644;2022-12-07T09:08:00;3.10;99.90
30069;DHT22;16894;49.456;10.644;2022-12-07T09:10:29;3.20;99.90
30069;DHT22;16894;49.456;10.644;2022-12-07T09:12:55;3.20;99.90
30069;DHT22;16894;49.456;10.644;2022-12-07T09:15:21;3.20;99.90
30069;DHT22;16894;49.456;10.644;2022-12-07T09:17:47;3.30;99.90
30069;DHT22;16894;49.456;10.644;2022-12-07T09:20:12;3.30;99.90
30069;DHT22;16894;49.456;10.644;2022-12-07T09:22:38;3.30;99.90
30069;DHT22;16894;49.456;10.644;2022-12-07T09:25:04;3.30;99.90
30069;DHT22;16894;49.456;10.644;2022-12-07T09:27:30;3.30;99.90
30069;DHT22;16894;49.456;10.644;2022-12-07T09:29:55;3.30;99.90
30069;DHT22;16894;49.456;10.644;2022-12-07T09:32:21;3.30;99.90
30069;DHT22;16894;49.456;10.644;2022-12-07T09:34:47;3.30;99.90
30069;DHT22;16894;49.456;10.644;2022-12-07T09:37:12;3.30;99.90
30069;DHT22;16894;49.456;10.644;2022-12-07T09:39:39;3.30;99.90
30069;DHT22;16894;49.456;10.644;2022-12-07T09:42:06;3.30;99.90
30069;DHT22;16894;49.456;10.644;2022-12-07T09:44:33;3.30;99.90
30069;DHT22;16894;49.456;10.644;2022-12-07T09:47:00;3.40;99.90
30069;DHT22;16894;49.456;10.644;2022-12-07T09:49:28;3.40;99.90
30069;DHT22;16894;49.456;10.644;2022-12-07T09:52:27;3.40;99.90
30069;DHT22;16894;49.456;10.644;2022-12-07T09:54:53;3.40;99.90
30069;DHT22;16894;49.456;10.644;2022-12-07T09:57:30;3.50;99.90
30069;DHT22;16894;49.456;10.644;2022-12-07T10:00:03;3.60;99.90
30069;DHT22;16894;49.456;10.644;2022-12-07T10:02:46;3.60;99.90
30069;DHT22;16894;49.456;10.644;2022-12-07T10:05:26;3.60;99.90
30069;DHT22;16894;49.456;10.644;2022-12-07T10:07:52;3.60;99.90
30069;DHT22;16894;49.456;10.644;2022-12-07T10:10:31;3.60;99.90
30069;DHT22;16894;49.456;10.644;2022-12-07T10:13:00;3.60;99.90
30069;DHT22;16894;49.456;10.644;2022-12-07T10:18:19;3.60;99.90
30069;DHT22;16894;49.456;10.644;2022-12-07T10:20:47;3.60;99.90
30069;DHT22;16894;49.456;10.644;2022-12-07T10:23:17;3.70;99.90
30069;DHT22;16894;49.456;10.644;2022-12-07T10:25:44;3.60;99.90
30069;DHT22;16894;49.456;10.644;2022-12-07T10:28:18;3.60;99.90
30069;DHT22;16894;49.456;10.644;2022-12-07T10:31:15;3.60;99.90
30069;DHT22;16894;49.456;10.644;2022-12-07T10:33:58;3.60;99.90
30069;DHT22;16894;49.456;10.644;2022-12-07T10:36:27;3.60;99.90
30069;DHT22;16894;49.456;10.644;2022-12-07T10:41:25;3.60;99.90
30069;DHT22;16894;49.456;10.644;2022-12-07T10:43:56;3.70;99.90
30069;DHT22;16894;49.456;10.644;2022-12-07T10:46:50;3.60;99.90
30069;DHT22;16894;49.456;10.644;2022-12-07T11:00:58;3.70;99.90
30069;DHT22;16894;49.456;10.644;2022-12-07T11:03:53;3.80;99.90
30069;DHT22;16894;49.456;10.644;2022-12-07T11:06:37;3.70;99.90
30069;DHT22;16894;49.456;10.644;2022-12-07T11:14:44;3.70;99.90
30069;DHT22;16894;49.456;10.644;2022-12-07T11:17:21;3.70;99.90
30069;DHT22;16894;49.456;10.644;2022-12-07T11:25:49;3.80;99.90
30069;DHT22;16894;49.456;10.644;2022-12-07T11:31:22;3.90;99.90
30069;DHT22;16894;49.456;10.644;2022-12-07T11:34:00;3.90;99.90
30069;DHT22;16894;49.456;10.644;2022-12-07T11:36:45;4.00;99.90
30069;DHT22;16894;49.456;10.644;2022-12-07T11:39:34;4.00;99.90
30069;DHT22;16894;49.456;10.644;2022-12-07T11:42:09;4.10;99.90
30069;DHT22;16894;49.456;10.644;2022-12-07T11:47:35;4.10;99.90
30069;DHT22;16894;49.456;10.644;2022-12-07T11:50:25;4.10;99.90
30069;DHT22;16894;49.456;10.644;2022-12-07T11:53:03;4.10;99.90
30069;DHT22;16894;49.456;10.644;2022-12-07T12:03:42;4.10;99.90
30069;DHT22;16894;49.456;10.644;2022-12-07T12:06:09;4.10;99.90
30069;DHT22;16894;49.456;10.644;2022-12-07T12:25:49;3.80;99.90
30069;DHT22;16894;49.456;10.644;2022-12-07T12:28:40;3.80;99.90
30069;DHT22;16894;49.456;10.644;2022-12-07T12:31:14;3.80;99.90
30069;DHT22;16894;49.456;10.644;2022-12-07T12:33:47;3.80;99.90
30069;DHT22;16894;49.456;10.644;2022-12-07T12:47:02;3.80;99.90
30069;DHT22;16894;49.456;10.644;2022-12-07T12:49:38;3.80;99.90
30069;DHT22;16894;49.456;10.644;2022-12-07T12:54:38;3.80;99.90
30069;DHT22;16894;49.456;10.644;2022-12-07T12:57:22;3.80;99.90
30069;DHT22;16894;49.456;10.644;2022-12-07T13:02:32;3.90;99.90
30069;DHT22;16894;49.456;10.644;2022-12-07T13:07:49;3.80;99.90
30069;DHT22;16894;49.456;10.644;2022-12-07T13:31:41;3.70;99.90
30069;DHT22;16894;49.456;10.644;2022-12-07T13:34:39;3.70;99.90
30069;DHT22;16894;49.456;10.644;2022-12-07T13:37:28;3.70;99.90
30069;DHT22;16894;49.456;10.644;2022-12-07T13:40:21;3.70;99.90
30069;DHT22;16894;49.456;10.644;2022-12-07T13:43:16;3.70;99.90
30069;DHT22;16894;49.456;10.644;2022-12-07T13:45:43;3.70;99.90
30069;DHT22;16894;49.456;10.644;2022-12-07T13:48:45;3.70;99.90
30069;DHT22;16894;49.456;10.644;2022-12-07T13:51:25;3.80;99.90
30069;DHT22;16894;49.456;10.644;2022-12-07T13:53:59;3.90;99.90
30069;DHT22;16894;49.456;10.644;2022-12-07T13:56:33;4.00;99.90
30069;DHT22;16894;49.456;10.644;2022-12-07T13:58:59;4.00;99.90
30069;DHT22;16894;49.456;10.644;2022-12-07T14:01:25;3.90;99.90
30069;DHT22;16894;49.456;10.644;2022-12-07T14:03:51;3.90;99.90
30069;DHT22;16894;49.456;10.644;2022-12-07T14:06:25;4.00;99.90
30069;DHT22;16894;49.456;10.644;2022-12-07T14:09:14;4.00;99.90
30069;DHT22;16894;49.456;10.644;2022-12-07T14:11:41;4.10;99.90
30069;DHT22;16894;49.456;10.644;2022-12-07T14:14:15;4.00;99.90
30069;DHT22;16894;49.456;10.644;2022-12-07T14:16:41;4.00;99.90
30069;DHT22;16894;49.456;10.644;2022-12-07T14:19:46;4.00;99.90
30069;DHT22;16894;49.456;10.644;2022-12-07T14:22:26;4.00;99.90
30069;DHT22;16894;49.456;10.644;2022-12-07T14:25:18;4.10;99.90
30069;DHT22;16894;49.456;10.644;2022-12-07T14:27:58;4.00;99.90
30069;DHT22;16894;49.456;10.644;2022-12-07T14:30:34;4.00;99.90
30069;DHT22;16894;49.456;10.644;2022-12-07T14:33:01;4.00;99.90
30069;DHT22;16894;49.456;10.644;2022-12-07T14:35:28;3.90;99.90
30069;DHT22;16894;49.456;10.644;2022-12-07T14:37:54;3.90;99.90
30069;DHT22;16894;49.456;10.644;2022-12-07T14:40:24;3.90;99.90
30069;DHT22;16894;49.456;10.644;2022-12-07T14:42:59;3.90;99.90
30069;DHT22;16894;49.456;10.644;2022-12-07T14:45:26;3.80;99.90
30069;DHT22;16894;49.456;10.644;2022-12-07T14:47:52;3.80;99.90
30069;DHT22;16894;49.456;10.644;2022-12-07T14:50:19;3.70;99.90
30069;DHT22;16894;49.456;10.644;2022-12-07T14:52:49;3.70;99.90
30069;DHT22;16894;49.456;10.644;2022-12-07T14:57:48;3.70;99.90
30069;DHT22;16894;49.456;10.644;2022-12-07T15:00:15;3.70;99.90
30069;DHT22;16894;49.456;10.644;2022-12-07T15:02:43;3.60;99.90
30069;DHT22;16894;49.456;10.644;2022-12-07T15:05:09;3.60;99.90
30069;DHT22;16894;49.456;10.644;2022-12-07T15:07:35;3.60;99.90
30069;DHT22;16894;49.456;10.644;2022-12-07T15:10:01;3.60;99.90
30069;DHT22;16894;49.456;10.644;2022-12-07T15:12:26;3.60;99.90
30069;DHT22;16894;49.456;10.644;2022-12-07T15:14:52;3.60;99.90
30069;DHT22;16894;49.456;10.644;2022-12-07T15:17:18;3.60;99.90
30069;DHT22;16894;49.456;10.644;2022-12-07T15:19:43;3.60;99.90
30069;DHT22;16894;49.456;10.644;2022-12-07T15:22:09;3.60;99.90
30069;DHT22;16894;49.456;10.644;2022-12-07T15:24:36;3.70;99.90
30069;DHT22;16894;49.456;10.644;2022-12-07T15:27:02;3.60;99.90
30069;DHT22;16894;49.456;10.644;2022-12-07T15:29:29;3.60;99.90
30069;DHT22;16894;49.456;10.644;2022-12-07T15:31:55;3.50;99.90
30069;DHT22;16894;49.456;10.644;2022-12-07T15:34:21;3.40;99.90
30069;DHT22;16894;49.456;10.644;2022-12-07T15:36:47;3.40;99.90
30069;DHT22;16894;49.456;10.644;2022-12-07T15:39:12;3.30;99.90
30069;DHT22;16894;49.456;10.644;2022-12-07T15:41:38;3.20;99.90
30069;DHT22;16894;49.456;10.644;2022-12-07T15:44:04;3.20;99.90
30069;DHT22;16894;49.456;10.644;2022-12-07T15:46:48;3.20;99.90
30069;DHT22;16894;49.456;10.644;2022-12-07T15:49:16;3.20;99.90
30069;DHT22;16894;49.456;10.644;2022-12-07T15:51:42;3.10;99.90
30069;DHT22;16894;49.456;10.644;2022-12-07T15:54:35;3.10;99.90
30069;DHT22;16894;49.456;10.644;2022-12-07T15:57:00;3.00;99.90
30069;DHT22;16894;49.456;10.644;2022-12-07T15:59:27;3.00;99.90
30069;DHT22;16894;49.456;10.644;2022-12-07T16:01:53;3.00;99.90
30069;DHT22;16894;49.456;10.644;2022-12-07T16:04:19;3.00;99.90
30069;DHT22;16894;49.456;10.644;2022-12-07T16:06:45;3.00;99.90
30069;DHT22;16894;49.456;10.644;2022-12-07T16:09:11;3.00;99.90
30069;DHT22;16894;49.456;10.644;2022-12-07T16:11:36;3.00;99.90
30069;DHT22;16894;49.456;10.644;2022-12-07T16:14:02;3.00;99.90
30069;DHT22;16894;49.456;10.644;2022-12-07T16:16:28;3.00;99.90
30069;DHT22;16894;49.456;10.644;2022-12-07T16:18:53;2.90;99.90
30069;DHT22;16894;49.456;10.644;2022-12-07T16:21:19;2.90;99.90
30069;DHT22;16894;49.456;10.644;2022-12-07T16:23:45;2.90;99.90
30069;DHT22;16894;49.456;10.644;2022-12-07T16:26:13;2.90;99.90
30069;DHT22;16894;49.456;10.644;2022-12-07T16:28:40;2.90;99.90
30069;DHT22;16894;49.456;10.644;2022-12-07T16:31:08;2.90;99.90
30069;DHT22;16894;49.456;10.644;2022-12-07T16:33:36;2.80;99.90
30069;DHT22;16894;49.456;10.644;2022-12-07T16:36:04;2.90;99.90
30069;DHT22;16894;49.456;10.644;2022-12-07T16:38:30;2.80;99.90
30069;DHT22;16894;49.456;10.644;2022-12-07T16:40:55;2.80;99.90
30069;DHT22;16894;49.456;10.644;2022-12-07T16:43:21;2.80;99.90
30069;DHT22;16894;49.456;10.644;2022-12-07T16:45:47;2.80;99.90
30069;DHT22;16894;49.456;10.644;2022-12-07T16:48:14;2.70;99.90
30069;DHT22;16894;49.456;10.644;2022-12-07T16:50:41;2.70;99.90
30069;DHT22;16894;49.456;10.644;2022-12-07T16:53:08;2.70;99.90
30069;DHT22;16894;49.456;10.644;2022-12-07T16:55:37;2.60;99.90
30069;DHT22;16894;49.456;10.644;2022-12-07T16:58:03;2.50;99.90
30069;DHT22;16894;49.456;10.644;2022-12-07T17:00:28;2.40;99.90
30069;DHT22;16894;49.456;10.644;2022-12-07T17:02:54;2.40;99.90
30069;DHT22;16894;49.456;10.644;2022-12-07T17:05:20;2.30;99.90
30069;DHT22;16894;49.456;10.644;2022-12-07T17:07:46;2.30;99.90
30069;DHT22;16894;49.456;10.644;2022-12-07T17:10:11;2.30;99.90
30069;DHT22;16894;49.456;10.644;2022-12-07T17:12:37;2.30;99.90
30069;DHT22;16894;49.456;10.644;2022-12-07T17:15:03;2.30;99.90
30069;DHT22;16894;49.456;10.644;2022-12-07T17:17:55;2.30;99.90
30069;DHT22;16894;49.456;10.644;2022-12-07T17:20:23;2.30;99.90
30069;DHT22;16894;49.456;10.644;2022-12-07T17:22:49;2.30;99.90
30069;DHT22;16894;49.456;10.644;2022-12-07T17:25:16;2.30;99.90
30069;DHT22;16894;49.456;10.644;2022-12-07T17:27:42;2.30;99.90
30069;DHT22;16894;49.456;10.644;2022-12-07T17:30:09;2.30;99.90
30069;DHT22;16894;49.456;10.644;2022-12-07T17:32:34;2.30;99.90
30069;DHT22;16894;49.456;10.644;2022-12-07T17:35:00;2.30;99.90
30069;DHT22;16894;49.456;10.644;2022-12-07T17:37:26;2.30;99.90
30069;DHT22;16894;49.456;10.644;2022-12-07T17:39:52;2.30;99.90
30069;DHT22;16894;49.456;10.644;2022-12-07T17:42:21;2.30;99.90
30069;DHT22;16894;49.456;10.644;2022-12-07T17:45:06;2.30;99.90
30069;DHT22;16894;49.456;10.644;2022-12-07T17:47:33;2.30;99.90
30069;DHT22;16894;49.456;10.644;2022-12-07T17:49:58;2.30;99.90
30069;DHT22;16894;49.456;10.644;2022-12-07T17:52:24;2.40;99.90
30069;DHT22;16894;49.456;10.644;2022-12-07T17:55:09;2.40;99.90
30069;DHT22;16894;49.456;10.644;2022-12-07T17:57:34;2.50;99.90
30069;DHT22;16894;49.456;10.644;2022-12-07T18:00:00;2.50;99.90
30069;DHT22;16894;49.456;10.644;2022-12-07T18:02:26;2.50;99.90